sensor_id;sensor_type;location;lat;lon;timestamp;P1;durP1;ratioP1;P2;durP2;ratioP2
47599;SDS011;33323;52.124;6.018;2023-02-15T00:01:28;26.33;;;13.32;;
47599;SDS011;33323;52.124;6.018;2023-02-15T00:07:59;29.45;;;13.55;;
47599;SDS011;33323;52.124;6.018;2023-02-15T00:10:50;30.48;;;14.00;;
47599;SDS011;33323;52.124;6.018;2023-02-15T00:14:01;32.20;;;14.82;;
47599;SDS011;33323;52.124;6.018;2023-02-15T00:16:52;31.85;;;14.38;;
47599;SDS011;33323;52.124;6.018;2023-02-15T00:19:37;29.15;;;13.48;;
47599;SDS011;33323;52.124;6.018;2023-02-15T00:32:26;25.52;;;13.65;;
47599;SDS011;33323;52.124;6.018;2023-02-15T00:43:18;24.88;;;12.52;;
47599;SDS011;33323;52.124;6.018;2023-02-15T00:45:49;28.55;;;13.77;;
47599;SDS011;33323;52.124;6.018;2023-02-15T00:48:17;31.08;;;13.65;;
47599;SDS011;33323;52.124;6.018;2023-02-15T00:50:48;29.92;;;14.77;;
47599;SDS011;33323;52.124;6.018;2023-02-15T00:53:26;29.13;;;13.95;;
47599;SDS011;33323;52.124;6.018;2023-02-15T00:56:06;28.60;;;12.82;;
47599;SDS011;33323;52.124;6.018;2023-02-15T00:58:33;30.80;;;14.05;;
47599;SDS011;33323;52.124;6.018;2023-02-15T01:01:07;30.10;;;14.40;;
47599;SDS011;33323;52.124;6.018;2023-02-15T01:03:37;23.63;;;14.10;;
47599;SDS011;33323;52.124;6.018;2023-02-15T01:06:05;27.35;;;13.85;;
47599;SDS011;33323;52.124;6.018;2023-02-15T01:08:32;28.42;;;14.82;;
47599;SDS011;33323;52.124;6.018;2023-02-15T01:11:04;31.15;;;14.10;;
47599;SDS011;33323;52.124;6.018;2023-02-15T01:13:39;30.58;;;14.88;;
47599;SDS011;33323;52.124;6.018;2023-02-15T01:16:06;26.48;;;12.70;;
47599;SDS011;33323;52.124;6.018;2023-02-15T01:18:35;23.08;;;11.48;;
47599;SDS011;33323;52.124;6.018;2023-02-15T01:21:09;25.63;;;13.30;;
47599;SDS011;33323;52.124;6.018;2023-02-15T01:23:42;27.52;;;14.00;;
47599;SDS011;33323;52.124;6.018;2023-02-15T01:26:11;27.15;;;13.27;;
47599;SDS011;33323;52.124;6.018;2023-02-15T01:28:42;27.55;;;14.10;;
47599;SDS011;33323;52.124;6.018;2023-02-15T01:31:13;31.95;;;14.77;;
47599;SDS011;33323;52.124;6.018;2023-02-15T01:36:14;28.25;;;13.50;;
47599;SDS011;33323;52.124;6.018;2023-02-15T01:38:44;27.05;;;12.93;;
47599;SDS011;33323;52.124;6.018;2023-02-15T01:41:13;31.23;;;14.80;;
47599;SDS011;33323;52.124;6.018;2023-02-15T01:43:59;29.35;;;13.35;;
47599;SDS011;33323;52.124;6.018;2023-02-15T01:49:09;30.70;;;13.77;;
47599;SDS011;33323;52.124;6.018;2023-02-15T01:51:47;28.17;;;12.73;;
47599;SDS011;33323;52.124;6.018;2023-02-15T01:54:33;28.45;;;13.90;;
47599;SDS011;33323;52.124;6.018;2023-02-15T01:57:10;33.65;;;15.50;;
47599;SDS011;33323;52.124;6.018;2023-02-15T01:59:49;28.27;;;13.63;;
47599;SDS011;33323;52.124;6.018;2023-02-15T02:02:23;27.25;;;12.20;;
47599;SDS011;33323;52.124;6.018;2023-02-15T02:04:58;25.20;;;13.13;;
47599;SDS011;33323;52.124;6.018;2023-02-15T02:07:33;29.23;;;14.30;;
47599;SDS011;33323;52.124;6.018;2023-02-15T02:10:05;27.83;;;12.02;;
47599;SDS011;33323;52.124;6.018;2023-02-15T02:12:38;30.10;;;13.68;;
47599;SDS011;33323;52.124;6.018;2023-02-15T02:15:09;31.50;;;14.95;;
47599;SDS011;33323;52.124;6.018;2023-02-15T02:20:25;27.63;;;13.35;;
47599;SDS011;33323;52.124;6.018;2023-02-15T02:23:07;27.63;;;13.77;;
47599;SDS011;33323;52.124;6.018;2023-02-15T02:38:49;29.50;;;14.65;;
47599;SDS011;33323;52.124;6.018;2023-02-15T02:41:44;30.42;;;14.40;;
47599;SDS011;33323;52.124;6.018;2023-02-15T02:44:41;39.50;;;17.38;;
47599;SDS011;33323;52.124;6.018;2023-02-15T02:50:21;30.42;;;13.88;;
47599;SDS011;33323;52.124;6.018;2023-02-15T02:52:52;27.42;;;15.32;;
47599;SDS011;33323;52.124;6.018;2023-02-15T02:58:31;30.55;;;14.63;;
47599;SDS011;33323;52.124;6.018;2023-02-15T03:01:12;28.33;;;14.90;;
47599;SDS011;33323;52.124;6.018;2023-02-15T03:04:05;31.65;;;13.07;;
47599;SDS011;33323;52.124;6.018;2023-02-15T03:06:41;31.30;;;15.93;;
47599;SDS011;33323;52.124;6.018;2023-02-15T03:09:15;27.75;;;14.30;;
47599;SDS011;33323;52.124;6.018;2023-02-15T03:12:12;26.02;;;13.52;;
47599;SDS011;33323;52.124;6.018;2023-02-15T03:17:15;27.65;;;13.18;;
47599;SDS011;33323;52.124;6.018;2023-02-15T03:19:46;29.02;;;14.02;;
47599;SDS011;33323;52.124;6.018;2023-02-15T03:25:20;26.42;;;13.60;;
47599;SDS011;33323;52.124;6.018;2023-02-15T03:27:52;23.33;;;12.25;;
47599;SDS011;33323;52.124;6.018;2023-02-15T03:30:34;31.52;;;12.95;;
47599;SDS011;33323;52.124;6.018;2023-02-15T03:33:04;28.02;;;13.15;;
47599;SDS011;33323;52.124;6.018;2023-02-15T03:35:36;29.85;;;13.70;;
47599;SDS011;33323;52.124;6.018;2023-02-15T03:41:31;30.48;;;14.63;;
47599;SDS011;33323;52.124;6.018;2023-02-15T03:44:06;29.60;;;13.48;;
47599;SDS011;33323;52.124;6.018;2023-02-15T03:47:08;30.63;;;14.90;;
47599;SDS011;33323;52.124;6.018;2023-02-15T03:49:57;27.70;;;13.35;;
47599;SDS011;33323;52.124;6.018;2023-02-15T03:53:05;35.00;;;15.10;;
47599;SDS011;33323;52.124;6.018;2023-02-15T03:55:35;31.00;;;15.90;;
47599;SDS011;33323;52.124;6.018;2023-02-15T03:58:04;34.58;;;14.82;;
47599;SDS011;33323;52.124;6.018;2023-02-15T04:01:09;33.90;;;16.02;;
47599;SDS011;33323;52.124;6.018;2023-02-15T04:04:18;34.28;;;14.73;;
47599;SDS011;33323;52.124;6.018;2023-02-15T04:06:49;32.28;;;13.60;;
47599;SDS011;33323;52.124;6.018;2023-02-15T04:09:16;30.20;;;13.82;;
47599;SDS011;33323;52.124;6.018;2023-02-15T04:12:03;31.20;;;13.75;;
47599;SDS011;33323;52.124;6.018;2023-02-15T04:14:30;36.03;;;15.55;;
47599;SDS011;33323;52.124;6.018;2023-02-15T04:17:16;28.88;;;14.25;;
47599;SDS011;33323;52.124;6.018;2023-02-15T04:19:43;27.33;;;15.07;;
47599;SDS011;33323;52.124;6.018;2023-02-15T04:22:28;33.72;;;16.20;;
47599;SDS011;33323;52.124;6.018;2023-02-15T04:25:14;34.80;;;14.83;;
47599;SDS011;33323;52.124;6.018;2023-02-15T04:27:42;31.55;;;14.80;;
47599;SDS011;33323;52.124;6.018;2023-02-15T04:30:14;28.42;;;14.40;;
47599;SDS011;33323;52.124;6.018;2023-02-15T04:32:45;26.52;;;13.95;;
47599;SDS011;33323;52.124;6.018;2023-02-15T04:35:12;39.95;;;16.98;;
47599;SDS011;33323;52.124;6.018;2023-02-15T04:37:40;28.92;;;13.60;;
47599;SDS011;33323;52.124;6.018;2023-02-15T04:40:10;31.38;;;13.85;;
47599;SDS011;33323;52.124;6.018;2023-02-15T04:42:49;31.35;;;16.27;;
47599;SDS011;33323;52.124;6.018;2023-02-15T04:45:19;36.78;;;15.68;;
47599;SDS011;33323;52.124;6.018;2023-02-15T04:47:46;35.00;;;16.48;;
47599;SDS011;33323;52.124;6.018;2023-02-15T04:50:13;37.50;;;15.52;;
47599;SDS011;33323;52.124;6.018;2023-02-15T04:52:40;32.58;;;17.42;;
47599;SDS011;33323;52.124;6.018;2023-02-15T04:55:07;36.03;;;16.30;;
47599;SDS011;33323;52.124;6.018;2023-02-15T04:57:35;32.00;;;16.25;;
47599;SDS011;33323;52.124;6.018;2023-02-15T05:00:02;42.15;;;17.55;;
47599;SDS011;33323;52.124;6.018;2023-02-15T05:02:29;35.50;;;16.55;;
47599;SDS011;33323;52.124;6.018;2023-02-15T05:04:56;35.65;;;15.35;;
47599;SDS011;33323;52.124;6.018;2023-02-15T05:07:24;34.60;;;16.48;;
47599;SDS011;33323;52.124;6.018;2023-02-15T05:09:51;36.38;;;16.77;;
47599;SDS011;33323;52.124;6.018;2023-02-15T05:12:18;34.15;;;15.75;;
47599;SDS011;33323;52.124;6.018;2023-02-15T05:14:45;33.53;;;15.18;;
47599;SDS011;33323;52.124;6.018;2023-02-15T05:17:12;31.40;;;15.63;;
47599;SDS011;33323;52.124;6.018;2023-02-15T05:19:39;37.45;;;16.35;;
47599;SDS011;33323;52.124;6.018;2023-02-15T05:22:06;39.58;;;15.43;;
47599;SDS011;33323;52.124;6.018;2023-02-15T05:24:33;29.45;;;15.32;;
47599;SDS011;33323;52.124;6.018;2023-02-15T05:27:18;30.27;;;14.07;;
47599;SDS011;33323;52.124;6.018;2023-02-15T05:30:04;29.27;;;14.93;;
47599;SDS011;33323;52.124;6.018;2023-02-15T05:32:32;35.45;;;16.20;;
47599;SDS011;33323;52.124;6.018;2023-02-15T05:34:59;31.02;;;14.50;;
47599;SDS011;33323;52.124;6.018;2023-02-15T05:37:26;31.80;;;15.40;;
47599;SDS011;33323;52.124;6.018;2023-02-15T05:39:54;33.83;;;15.20;;
47599;SDS011;33323;52.124;6.018;2023-02-15T05:42:23;33.42;;;16.58;;
47599;SDS011;33323;52.124;6.018;2023-02-15T05:44:50;34.30;;;15.00;;
47599;SDS011;33323;52.124;6.018;2023-02-15T05:47:16;37.60;;;15.88;;
47599;SDS011;33323;52.124;6.018;2023-02-15T05:49:43;30.30;;;14.20;;
47599;SDS011;33323;52.124;6.018;2023-02-15T05:52:10;32.72;;;16.25;;
47599;SDS011;33323;52.124;6.018;2023-02-15T05:54:38;33.70;;;15.80;;
47599;SDS011;33323;52.124;6.018;2023-02-15T05:57:05;29.38;;;14.85;;
47599;SDS011;33323;52.124;6.018;2023-02-15T05:59:32;27.15;;;14.77;;
47599;SDS011;33323;52.124;6.018;2023-02-15T06:01:59;34.40;;;16.10;;
47599;SDS011;33323;52.124;6.018;2023-02-15T06:04:26;36.40;;;16.90;;
47599;SDS011;33323;52.124;6.018;2023-02-15T06:06:53;35.85;;;14.70;;
47599;SDS011;33323;52.124;6.018;2023-02-15T06:09:20;29.70;;;14.50;;
47599;SDS011;33323;52.124;6.018;2023-02-15T06:11:47;34.17;;;15.27;;
47599;SDS011;33323;52.124;6.018;2023-02-15T06:14:14;32.30;;;14.65;;
47599;SDS011;33323;52.124;6.018;2023-02-15T06:16:41;27.23;;;13.68;;
47599;SDS011;33323;52.124;6.018;2023-02-15T06:19:07;29.52;;;15.02;;
47599;SDS011;33323;52.124;6.018;2023-02-15T06:21:34;30.85;;;12.45;;
47599;SDS011;33323;52.124;6.018;2023-02-15T06:24:01;35.63;;;15.48;;
47599;SDS011;33323;52.124;6.018;2023-02-15T06:26:29;30.00;;;14.57;;
47599;SDS011;33323;52.124;6.018;2023-02-15T06:28:56;30.80;;;14.18;;
47599;SDS011;33323;52.124;6.018;2023-02-15T06:31:23;28.40;;;13.48;;
47599;SDS011;33323;52.124;6.018;2023-02-15T06:33:50;32.03;;;15.20;;
47599;SDS011;33323;52.124;6.018;2023-02-15T06:36:17;34.30;;;13.95;;
47599;SDS011;33323;52.124;6.018;2023-02-15T06:38:44;30.00;;;14.32;;
47599;SDS011;33323;52.124;6.018;2023-02-15T06:41:10;33.33;;;15.73;;
47599;SDS011;33323;52.124;6.018;2023-02-15T06:43:37;28.40;;;13.68;;
47599;SDS011;33323;52.124;6.018;2023-02-15T06:46:06;34.00;;;14.25;;
47599;SDS011;33323;52.124;6.018;2023-02-15T06:48:33;34.90;;;14.02;;
47599;SDS011;33323;52.124;6.018;2023-02-15T06:51:00;27.50;;;13.35;;
47599;SDS011;33323;52.124;6.018;2023-02-15T06:53:27;29.00;;;13.52;;
47599;SDS011;33323;52.124;6.018;2023-02-15T06:56:01;31.70;;;14.75;;
47599;SDS011;33323;52.124;6.018;2023-02-15T06:58:33;29.42;;;13.25;;
47599;SDS011;33323;52.124;6.018;2023-02-15T07:01:00;31.63;;;14.45;;
47599;SDS011;33323;52.124;6.018;2023-02-15T07:03:27;30.42;;;14.32;;
47599;SDS011;33323;52.124;6.018;2023-02-15T07:05:57;29.75;;;14.50;;
47599;SDS011;33323;52.124;6.018;2023-02-15T07:08:27;30.67;;;13.75;;
47599;SDS011;33323;52.124;6.018;2023-02-15T07:10:55;27.52;;;14.18;;
47599;SDS011;33323;52.124;6.018;2023-02-15T07:13:42;30.27;;;13.93;;
47599;SDS011;33323;52.124;6.018;2023-02-15T07:16:09;28.10;;;13.85;;
47599;SDS011;33323;52.124;6.018;2023-02-15T07:18:37;28.17;;;14.48;;
47599;SDS011;33323;52.124;6.018;2023-02-15T07:21:05;30.70;;;16.55;;
47599;SDS011;33323;52.124;6.018;2023-02-15T07:23:36;34.42;;;14.98;;
47599;SDS011;33323;52.124;6.018;2023-02-15T07:26:04;29.98;;;14.88;;
47599;SDS011;33323;52.124;6.018;2023-02-15T07:28:35;31.80;;;15.13;;
47599;SDS011;33323;52.124;6.018;2023-02-15T07:31:03;33.97;;;16.58;;
47599;SDS011;33323;52.124;6.018;2023-02-15T07:33:31;38.35;;;15.88;;
47599;SDS011;33323;52.124;6.018;2023-02-15T07:36:02;27.50;;;15.10;;
47599;SDS011;33323;52.124;6.018;2023-02-15T07:38:32;33.38;;;15.80;;
47599;SDS011;33323;52.124;6.018;2023-02-15T07:41:03;35.85;;;17.33;;
47599;SDS011;33323;52.124;6.018;2023-02-15T07:43:37;36.35;;;17.70;;
47599;SDS011;33323;52.124;6.018;2023-02-15T07:46:07;33.28;;;16.95;;
47599;SDS011;33323;52.124;6.018;2023-02-15T07:48:41;36.40;;;16.42;;
47599;SDS011;33323;52.124;6.018;2023-02-15T07:51:09;40.80;;;16.38;;
47599;SDS011;33323;52.124;6.018;2023-02-15T07:53:38;27.88;;;14.98;;
47599;SDS011;33323;52.124;6.018;2023-02-15T07:56:06;33.85;;;17.13;;
47599;SDS011;33323;52.124;6.018;2023-02-15T07:58:38;38.03;;;17.00;;
47599;SDS011;33323;52.124;6.018;2023-02-15T08:01:20;34.45;;;17.15;;
47599;SDS011;33323;52.124;6.018;2023-02-15T08:03:49;27.17;;;15.48;;
47599;SDS011;33323;52.124;6.018;2023-02-15T08:06:16;29.27;;;14.95;;
47599;SDS011;33323;52.124;6.018;2023-02-15T08:08:43;33.22;;;14.95;;
47599;SDS011;33323;52.124;6.018;2023-02-15T08:11:21;32.33;;;18.15;;
47599;SDS011;33323;52.124;6.018;2023-02-15T08:13:52;33.08;;;17.67;;
47599;SDS011;33323;52.124;6.018;2023-02-15T08:16:26;30.10;;;16.10;;
47599;SDS011;33323;52.124;6.018;2023-02-15T08:19:11;32.15;;;16.65;;
47599;SDS011;33323;52.124;6.018;2023-02-15T08:21:45;32.95;;;15.82;;
47599;SDS011;33323;52.124;6.018;2023-02-15T08:24:21;36.33;;;18.23;;
47599;SDS011;33323;52.124;6.018;2023-02-15T08:26:53;37.97;;;19.10;;
47599;SDS011;33323;52.124;6.018;2023-02-15T08:29:25;44.88;;;20.08;;
47599;SDS011;33323;52.124;6.018;2023-02-15T08:31:55;38.67;;;18.85;;
47599;SDS011;33323;52.124;6.018;2023-02-15T08:34:29;37.47;;;18.85;;
47599;SDS011;33323;52.124;6.018;2023-02-15T08:36:58;39.35;;;20.00;;
47599;SDS011;33323;52.124;6.018;2023-02-15T08:39:25;42.65;;;18.17;;
47599;SDS011;33323;52.124;6.018;2023-02-15T08:41:52;36.58;;;17.17;;
47599;SDS011;33323;52.124;6.018;2023-02-15T08:44:19;36.05;;;18.38;;
47599;SDS011;33323;52.124;6.018;2023-02-15T08:46:47;39.08;;;19.92;;
47599;SDS011;33323;52.124;6.018;2023-02-15T08:49:16;37.20;;;18.92;;
47599;SDS011;33323;52.124;6.018;2023-02-15T08:51:46;34.40;;;19.05;;
47599;SDS011;33323;52.124;6.018;2023-02-15T08:54:15;36.10;;;20.35;;
47599;SDS011;33323;52.124;6.018;2023-02-15T08:56:45;33.53;;;17.98;;
47599;SDS011;33323;52.124;6.018;2023-02-15T08:59:14;35.17;;;19.83;;
47599;SDS011;33323;52.124;6.018;2023-02-15T09:01:45;36.92;;;19.02;;
47599;SDS011;33323;52.124;6.018;2023-02-15T09:04:14;36.47;;;20.15;;
47599;SDS011;33323;52.124;6.018;2023-02-15T09:06:42;35.15;;;18.05;;
47599;SDS011;33323;52.124;6.018;2023-02-15T09:09:14;34.05;;;17.50;;
47599;SDS011;33323;52.124;6.018;2023-02-15T09:11:42;36.78;;;19.00;;
47599;SDS011;33323;52.124;6.018;2023-02-15T09:14:12;37.33;;;18.92;;
47599;SDS011;33323;52.124;6.018;2023-02-15T09:16:46;38.83;;;19.75;;
47599;SDS011;33323;52.124;6.018;2023-02-15T09:19:18;33.80;;;19.33;;
47599;SDS011;33323;52.124;6.018;2023-02-15T09:21:47;40.40;;;19.35;;
47599;SDS011;33323;52.124;6.018;2023-02-15T09:24:15;35.55;;;20.45;;
47599;SDS011;33323;52.124;6.018;2023-02-15T09:26:45;38.13;;;18.10;;
47599;SDS011;33323;52.124;6.018;2023-02-15T09:29:14;34.63;;;16.40;;
47599;SDS011;33323;52.124;6.018;2023-02-15T09:31:44;38.88;;;17.08;;
47599;SDS011;33323;52.124;6.018;2023-02-15T09:34:15;37.28;;;20.48;;
47599;SDS011;33323;52.124;6.018;2023-02-15T09:36:46;38.67;;;19.40;;
47599;SDS011;33323;52.124;6.018;2023-02-15T09:39:18;36.83;;;19.13;;
47599;SDS011;33323;52.124;6.018;2023-02-15T09:51:28;30.45;;;15.68;;
47599;SDS011;33323;52.124;6.018;2023-02-15T09:54:26;35.80;;;16.80;;
47599;SDS011;33323;52.124;6.018;2023-02-15T10:00:29;31.83;;;16.60;;
47599;SDS011;33323;52.124;6.018;2023-02-15T10:06:43;27.38;;;15.50;;
47599;SDS011;33323;52.124;6.018;2023-02-15T10:12:27;33.45;;;15.98;;
47599;SDS011;33323;52.124;6.018;2023-02-15T10:15:13;38.53;;;16.27;;
47599;SDS011;33323;52.124;6.018;2023-02-15T10:26:33;32.38;;;14.07;;
47599;SDS011;33323;52.124;6.018;2023-02-15T10:32:41;35.50;;;14.82;;
47599;SDS011;33323;52.124;6.018;2023-02-15T11:04:30;26.10;;;13.60;;
47599;SDS011;33323;52.124;6.018;2023-02-15T11:07:50;26.95;;;13.48;;
47599;SDS011;33323;52.124;6.018;2023-02-15T11:12:51;30.00;;;13.95;;
47599;SDS011;33323;52.124;6.018;2023-02-15T11:18:29;29.33;;;12.90;;
47599;SDS011;33323;52.124;6.018;2023-02-15T11:21:20;30.65;;;14.48;;
47599;SDS011;33323;52.124;6.018;2023-02-15T11:23:52;35.53;;;15.75;;
47599;SDS011;33323;52.124;6.018;2023-02-15T11:31:51;30.42;;;14.43;;
47599;SDS011;33323;52.124;6.018;2023-02-15T11:37:12;33.28;;;15.57;;
47599;SDS011;33323;52.124;6.018;2023-02-15T11:39:45;32.35;;;15.10;;
47599;SDS011;33323;52.124;6.018;2023-02-15T11:42:19;34.38;;;14.30;;
47599;SDS011;33323;52.124;6.018;2023-02-15T11:47:49;28.98;;;13.20;;
47599;SDS011;33323;52.124;6.018;2023-02-15T11:50:23;26.13;;;13.77;;
47599;SDS011;33323;52.124;6.018;2023-02-15T11:52:58;35.88;;;16.23;;
47599;SDS011;33323;52.124;6.018;2023-02-15T11:55:29;31.63;;;15.02;;
47599;SDS011;33323;52.124;6.018;2023-02-15T11:58:00;31.02;;;16.05;;
47599;SDS011;33323;52.124;6.018;2023-02-15T12:00:43;25.33;;;13.65;;
47599;SDS011;33323;52.124;6.018;2023-02-15T12:03:21;29.80;;;15.45;;
47599;SDS011;33323;52.124;6.018;2023-02-15T12:05:58;31.23;;;15.00;;
47599;SDS011;33323;52.124;6.018;2023-02-15T12:08:39;31.85;;;16.13;;
47599;SDS011;33323;52.124;6.018;2023-02-15T12:11:17;30.67;;;14.15;;
47599;SDS011;33323;52.124;6.018;2023-02-15T12:16:53;32.88;;;16.02;;
47599;SDS011;33323;52.124;6.018;2023-02-15T12:19:32;33.13;;;14.75;;
47599;SDS011;33323;52.124;6.018;2023-02-15T12:22:17;30.10;;;13.73;;
47599;SDS011;33323;52.124;6.018;2023-02-15T12:25:00;30.30;;;14.13;;
47599;SDS011;33323;52.124;6.018;2023-02-15T12:27:56;31.90;;;16.67;;
47599;SDS011;33323;52.124;6.018;2023-02-15T12:30:27;40.72;;;15.13;;
47599;SDS011;33323;52.124;6.018;2023-02-15T12:35:42;34.67;;;15.75;;
47599;SDS011;33323;52.124;6.018;2023-02-15T12:38:33;29.50;;;15.95;;
47599;SDS011;33323;52.124;6.018;2023-02-15T12:44:04;29.38;;;15.70;;
47599;SDS011;33323;52.124;6.018;2023-02-15T12:55:37;32.67;;;15.30;;
47599;SDS011;33323;52.124;6.018;2023-02-15T12:58:21;28.85;;;14.27;;
47599;SDS011;33323;52.124;6.018;2023-02-15T13:04:03;30.20;;;15.75;;
47599;SDS011;33323;52.124;6.018;2023-02-15T13:06:36;34.42;;;15.98;;
47599;SDS011;33323;52.124;6.018;2023-02-15T13:09:20;33.75;;;13.93;;
47599;SDS011;33323;52.124;6.018;2023-02-15T13:12:15;31.80;;;16.30;;
47599;SDS011;33323;52.124;6.018;2023-02-15T13:14:53;29.67;;;13.60;;
47599;SDS011;33323;52.124;6.018;2023-02-15T13:17:26;32.28;;;15.88;;
47599;SDS011;33323;52.124;6.018;2023-02-15T13:20:36;33.95;;;16.33;;
47599;SDS011;33323;52.124;6.018;2023-02-15T13:23:19;32.35;;;15.85;;
47599;SDS011;33323;52.124;6.018;2023-02-15T13:25:55;31.48;;;14.57;;
47599;SDS011;33323;52.124;6.018;2023-02-15T13:28:27;29.13;;;14.23;;
47599;SDS011;33323;52.124;6.018;2023-02-15T13:31:26;29.10;;;15.70;;
47599;SDS011;33323;52.124;6.018;2023-02-15T13:34:09;31.00;;;14.55;;
47599;SDS011;33323;52.124;6.018;2023-02-15T13:42:55;31.40;;;15.20;;
47599;SDS011;33323;52.124;6.018;2023-02-15T13:48:36;35.08;;;18.00;;
47599;SDS011;33323;52.124;6.018;2023-02-15T14:32:37;34.80;;;17.63;;
47599;SDS011;33323;52.124;6.018;2023-02-15T14:35:14;34.35;;;17.65;;
47599;SDS011;33323;52.124;6.018;2023-02-15T14:40:54;33.95;;;18.48;;
47599;SDS011;33323;52.124;6.018;2023-02-15T14:44:35;36.50;;;18.27;;
47599;SDS011;33323;52.124;6.018;2023-02-15T14:47:21;33.97;;;16.20;;
47599;SDS011;33323;52.124;6.018;2023-02-15T14:50:27;32.72;;;18.17;;
47599;SDS011;33323;52.124;6.018;2023-02-15T14:53:44;35.28;;;18.67;;
47599;SDS011;33323;52.124;6.018;2023-02-15T14:56:20;36.33;;;18.48;;
47599;SDS011;33323;52.124;6.018;2023-02-15T14:58:56;34.90;;;18.13;;
47599;SDS011;33323;52.124;6.018;2023-02-15T15:01:31;36.83;;;19.73;;
47599;SDS011;33323;52.124;6.018;2023-02-15T15:04:13;35.72;;;19.85;;
47599;SDS011;33323;52.124;6.018;2023-02-15T15:12:52;54.40;;;21.35;;
47599;SDS011;33323;52.124;6.018;2023-02-15T15:22:26;40.88;;;20.35;;
47599;SDS011;33323;52.124;6.018;2023-02-15T15:29:39;41.10;;;19.42;;
47599;SDS011;33323;52.124;6.018;2023-02-15T15:37:46;42.47;;;21.15;;
47599;SDS011;33323;52.124;6.018;2023-02-15T15:45:17;41.60;;;19.83;;
47599;SDS011;33323;52.124;6.018;2023-02-15T15:51:18;41.67;;;20.20;;
47599;SDS011;33323;52.124;6.018;2023-02-15T15:54:23;40.85;;;19.85;;
47599;SDS011;33323;52.124;6.018;2023-02-15T15:57:05;36.63;;;20.67;;
47599;SDS011;33323;52.124;6.018;2023-02-15T16:07:29;37.05;;;19.92;;
47599;SDS011;33323;52.124;6.018;2023-02-15T16:11:41;41.60;;;21.23;;
47599;SDS011;33323;52.124;6.018;2023-02-15T16:16:11;38.47;;;18.83;;
47599;SDS011;33323;52.124;6.018;2023-02-15T16:19:48;39.50;;;20.35;;
47599;SDS011;33323;52.124;6.018;2023-02-15T16:22:35;37.65;;;19.90;;
47599;SDS011;33323;52.124;6.018;2023-02-15T16:26:00;39.28;;;19.05;;
47599;SDS011;33323;52.124;6.018;2023-02-15T16:28:52;37.70;;;19.65;;
47599;SDS011;33323;52.124;6.018;2023-02-15T16:31:22;31.17;;;16.92;;
47599;SDS011;33323;52.124;6.018;2023-02-15T16:33:52;37.13;;;18.92;;
47599;SDS011;33323;52.124;6.018;2023-02-15T16:36:23;42.90;;;21.00;;
47599;SDS011;33323;52.124;6.018;2023-02-15T16:41:27;40.58;;;18.92;;
47599;SDS011;33323;52.124;6.018;2023-02-15T16:44:03;43.50;;;20.20;;
47599;SDS011;33323;52.124;6.018;2023-02-15T16:46:42;42.20;;;19.10;;
47599;SDS011;33323;52.124;6.018;2023-02-15T16:49:47;41.40;;;19.77;;
47599;SDS011;33323;52.124;6.018;2023-02-15T16:52:24;36.03;;;19.98;;
47599;SDS011;33323;52.124;6.018;2023-02-15T16:55:02;35.30;;;19.38;;
47599;SDS011;33323;52.124;6.018;2023-02-15T16:57:46;41.33;;;20.83;;
47599;SDS011;33323;52.124;6.018;2023-02-15T17:00:18;38.75;;;19.30;;
47599;SDS011;33323;52.124;6.018;2023-02-15T17:02:59;43.25;;;19.05;;
47599;SDS011;33323;52.124;6.018;2023-02-15T17:06:34;36.33;;;19.17;;
47599;SDS011;33323;52.124;6.018;2023-02-15T17:09:51;39.08;;;20.15;;
47599;SDS011;33323;52.124;6.018;2023-02-15T17:12:44;40.28;;;20.55;;
47599;SDS011;33323;52.124;6.018;2023-02-15T17:19:55;37.55;;;19.35;;
47599;SDS011;33323;52.124;6.018;2023-02-15T17:22:23;31.92;;;16.88;;
47599;SDS011;33323;52.124;6.018;2023-02-15T17:25:00;32.80;;;18.58;;
47599;SDS011;33323;52.124;6.018;2023-02-15T17:30:46;43.92;;;20.15;;
47599;SDS011;33323;52.124;6.018;2023-02-15T17:36:24;36.88;;;18.58;;
47599;SDS011;33323;52.124;6.018;2023-02-15T17:41:24;38.75;;;19.88;;
47599;SDS011;33323;52.124;6.018;2023-02-15T17:44:29;42.00;;;20.05;;
47599;SDS011;33323;52.124;6.018;2023-02-15T17:46:59;41.08;;;19.35;;
47599;SDS011;33323;52.124;6.018;2023-02-15T17:49:26;42.20;;;21.67;;
47599;SDS011;33323;52.124;6.018;2023-02-15T17:52:02;45.72;;;21.63;;
47599;SDS011;33323;52.124;6.018;2023-02-15T18:07:03;36.30;;;18.30;;
47599;SDS011;33323;52.124;6.018;2023-02-15T18:10:14;40.97;;;20.42;;
47599;SDS011;33323;52.124;6.018;2023-02-15T18:13:06;40.33;;;20.48;;
47599;SDS011;33323;52.124;6.018;2023-02-15T18:15:41;43.65;;;19.58;;
47599;SDS011;33323;52.124;6.018;2023-02-15T18:18:21;41.50;;;20.40;;
47599;SDS011;33323;52.124;6.018;2023-02-15T18:20:50;46.42;;;20.45;;
47599;SDS011;33323;52.124;6.018;2023-02-15T18:23:17;42.75;;;20.75;;
47599;SDS011;33323;52.124;6.018;2023-02-15T18:25:45;42.30;;;20.20;;
47599;SDS011;33323;52.124;6.018;2023-02-15T18:28:14;39.38;;;20.52;;
47599;SDS011;33323;52.124;6.018;2023-02-15T18:30:42;43.67;;;21.05;;
47599;SDS011;33323;52.124;6.018;2023-02-15T18:33:24;40.63;;;20.67;;
47599;SDS011;33323;52.124;6.018;2023-02-15T18:36:23;42.30;;;20.83;;
47599;SDS011;33323;52.124;6.018;2023-02-15T18:38:57;38.08;;;18.77;;
47599;SDS011;33323;52.124;6.018;2023-02-15T18:41:29;38.08;;;17.80;;
47599;SDS011;33323;52.124;6.018;2023-02-15T18:43:56;38.22;;;18.50;;
47599;SDS011;33323;52.124;6.018;2023-02-15T18:46:23;46.30;;;19.98;;
47599;SDS011;33323;52.124;6.018;2023-02-15T18:48:50;37.03;;;18.23;;
47599;SDS011;33323;52.124;6.018;2023-02-15T18:51:19;38.38;;;18.58;;
47599;SDS011;33323;52.124;6.018;2023-02-15T18:53:51;34.65;;;17.83;;
47599;SDS011;33323;52.124;6.018;2023-02-15T18:56:20;40.65;;;19.52;;
47599;SDS011;33323;52.124;6.018;2023-02-15T18:58:51;38.70;;;19.17;;
47599;SDS011;33323;52.124;6.018;2023-02-15T19:01:21;41.97;;;21.33;;
47599;SDS011;33323;52.124;6.018;2023-02-15T19:03:50;37.92;;;20.15;;
47599;SDS011;33323;52.124;6.018;2023-02-15T20:07:21;45.67;;;23.20;;
47599;SDS011;33323;52.124;6.018;2023-02-15T20:16:31;42.15;;;23.73;;
47599;SDS011;33323;52.124;6.018;2023-02-15T20:18:58;44.90;;;21.48;;
47599;SDS011;33323;52.124;6.018;2023-02-15T20:27:28;44.63;;;22.42;;
47599;SDS011;33323;52.124;6.018;2023-02-15T20:30:23;49.92;;;23.42;;
47599;SDS011;33323;52.124;6.018;2023-02-15T20:32:57;52.25;;;23.08;;
47599;SDS011;33323;52.124;6.018;2023-02-15T20:35:36;45.13;;;23.55;;
47599;SDS011;33323;52.124;6.018;2023-02-15T20:41:34;48.25;;;23.33;;
47599;SDS011;33323;52.124;6.018;2023-02-15T20:44:16;45.70;;;21.60;;
47599;SDS011;33323;52.124;6.018;2023-02-15T20:46:57;44.85;;;22.05;;
47599;SDS011;33323;52.124;6.018;2023-02-15T20:49:26;41.88;;;21.55;;
47599;SDS011;33323;52.124;6.018;2023-02-15T20:51:55;49.13;;;22.30;;
47599;SDS011;33323;52.124;6.018;2023-02-15T20:57:20;37.10;;;20.15;;
47599;SDS011;33323;52.124;6.018;2023-02-15T20:59:47;47.45;;;21.83;;
47599;SDS011;33323;52.124;6.018;2023-02-15T21:02:21;42.50;;;21.80;;
47599;SDS011;33323;52.124;6.018;2023-02-15T21:04:49;47.58;;;21.45;;
47599;SDS011;33323;52.124;6.018;2023-02-15T21:07:17;40.88;;;20.83;;
47599;SDS011;33323;52.124;6.018;2023-02-15T21:09:47;33.72;;;14.73;;
47599;SDS011;33323;52.124;6.018;2023-02-15T21:12:14;42.25;;;21.80;;